METAR Data
IDs: Format: Raw Decoded Include TAF

Data at: 0854 UTC 26 Jan 2020

KOLG 260835Z AUTO 24005KT 7SM OVC006 M02/M03 A2988 RMK AO1
KOLG 260815Z AUTO 23004KT 10SM OVC008 M02/M02 A2988 RMK AO1
KOLG 260755Z AUTO 22003KT 10SM OVC008 M02/M02 A2988 RMK AO1
KOLG 260735Z AUTO 25004KT 10SM OVC008 M02/M02 A2989 RMK AO1
KOLG 260715Z AUTO 00000KT 10SM OVC008 M02/M02 A2989 RMK AO1
KOLG 260655Z AUTO 26003KT 10SM OVC008 M02/M02 A2989 RMK AO1
KOLG 260635Z AUTO 24003KT 10SM OVC008 M02/M02 A2989 RMK AO1
KOLG 260615Z AUTO 25004KT 10SM OVC010 M01/M02 A2989 RMK AO1
KOLG 260555Z AUTO 26003KT 10SM OVC010 M01/M02 A2989 RMK AO1
KOLG 260535Z AUTO 26003KT 10SM OVC010 M01/M02 A2989 RMK AO1
KOLG 260515Z AUTO 24003KT 10SM OVC010 M01/M02 A2989 RMK AO1
KOLG 260455Z AUTO 26004KT 10SM OVC010 M01/M02 A2989 RMK AO1
KOLG 260435Z AUTO 29003KT 10SM OVC010 M01/M02 A2989 RMK AO1
KOLG 260415Z AUTO 28005KT 10SM OVC010 M01/M02 A2989 RMK AO1
KOLG 260355Z AUTO 00000KT 10SM OVC010 M01/M02 A2989 RMK AO1
KOLG 260335Z AUTO 00000KT 10SM OVC010 M01/M02 A2989 RMK AO1
KOLG 260315Z AUTO 31003KT 10SM OVC010 M01/M02 A2989 RMK AO1
KOLG 260255Z AUTO 31004KT 10SM OVC010 M01/M02 A2989 RMK AO1
KOLG 260235Z AUTO 29004KT 10SM OVC010 M01/M02 A2989 RMK AO1
KOLG 260215Z AUTO 29003KT 10SM OVC012 M01/M02 A2989 RMK AO1
KOLG 260155Z AUTO 29003KT 10SM OVC012 M01/M02 A2989 RMK AO1
KOLG 260135Z AUTO 31003KT 10SM OVC014 M02/M02 A2989 RMK AO1
KOLG 260115Z AUTO 00000KT 10SM BKN016 M02/M03 A2988 RMK AO1
KOLG 260055Z AUTO 00000KT 10SM CLR M03/M03 A2988 RMK AO1
KOLG 260035Z AUTO 00000KT 10SM CLR M02/M02 A2988 RMK AO1
KOLG 260015Z AUTO 29003KT 10SM SCT041 M01/M02 A2988 RMK AO1
KOLG 252355Z AUTO 29003KT 10SM BKN041 M01/M02 A2988 RMK AO1
KOLG 252335Z AUTO 00000KT 10SM OVC041 00/M02 A2988 RMK AO1
KOLG 252315Z AUTO 28003KT 10SM OVC041 00/M01 A2988 RMK AO1
KOLG 252255Z AUTO 00000KT 10SM OVC041 00/M02 A2988 RMK AO1
KOLG 252235Z AUTO 00000KT 10SM OVC043 00/M02 A2988 RMK AO1
KOLG 252215Z AUTO 31003KT 10SM SCT014 OVC045 00/M02 A2988 RMK AO1
KOLG 252155Z AUTO 00000KT 10SM OVC016 00/M02 A2988 RMK AO1
KOLG 252135Z AUTO 31003KT 10SM OVC016 00/M02 A2988 RMK AO1
KOLG 252115Z AUTO 31004KT 10SM OVC016 00/M02 A2988 RMK AO1
KOLG 252055Z AUTO 32003KT 10SM OVC014 00/M02 A2988 RMK AO1
KOLG 252035Z AUTO 30007KT 10SM OVC012 00/M02 A2988 RMK AO1
KOLG 252015Z AUTO 30006KT 10SM OVC012 00/M02 A2988 RMK AO1
KOLG 251955Z AUTO 00000KT 10SM OVC012 00/M02 A2988 RMK AO1
KOLG 251935Z AUTO 32006KT 10SM OVC012 00/M02 A2988 RMK AO1
KOLG 251915Z AUTO 33007KT 10SM OVC012 00/M02 A2988 RMK AO1
KOLG 251855Z AUTO 32005KT 10SM OVC012 00/M02 A2989 RMK AO1
KOLG 251835Z AUTO 32006KT 10SM OVC010 00/M02 A2989 RMK AO1
KOLG 251815Z AUTO 33006KT 10SM OVC010 00/M02 A2989 RMK AO1
KOLG 251755Z AUTO 32005KT 10SM OVC010 00/M02 A2990 RMK AO1
KOLG 251735Z AUTO 34005KT 10SM OVC008 M01/M02 A2991 RMK AO1
KOLG 251715Z AUTO 34003KT 10SM OVC008 M01/M02 A2991 RMK AO1
KOLG 251655Z AUTO 34004KT 10SM OVC006 M01/M01 A2991 RMK AO1
KOLG 251635Z AUTO 31003KT 10SM OVC006 M01/M01 A2991 RMK AO1
KOLG 251615Z AUTO 35004KT 10SM OVC006 M01/M01 A2990 RMK AO1
KOLG 251555Z AUTO 34004KT 10SM OVC006 M01/M01 A2990 RMK AO1
KOLG 251535Z AUTO 32006KT 10SM OVC006 M01/M01 A2990 RMK AO1
KOLG 251515Z AUTO 32004KT 10SM OVC006 M01/M01 A2990 RMK AO1
KOLG 251455Z AUTO 35004KT 10SM OVC006 M01/M01 A2990 RMK AO1
KOLG 251435Z AUTO 33003KT 7SM OVC006 M01/M01 A2991 RMK AO1
KOLG 251415Z AUTO 35004KT 4SM OVC006 M01/M01 A2990 RMK AO1
KOLG 251355Z AUTO 34004KT 7SM OVC006 M01/M01 A2990 RMK AO1
KOLG 251335Z AUTO 34005KT 10SM OVC006 M01/M01 A2989 RMK AO1
KOLG 251315Z AUTO 35004KT 5SM OVC006 M01/M01 A2989 RMK AO1
KOLG 251255Z AUTO 34005KT 7SM OVC006 M01/M01 A2989 RMK AO1
KOLG 251235Z AUTO 35004KT 7SM OVC006 M01/M01 A2989 RMK AO1
KOLG 251215Z AUTO 35004KT 10SM OVC008 M01/M01 A2989 RMK AO1
KOLG 251155Z AUTO 35005KT 10SM OVC008 M01/M01 A2989 RMK AO1
KOLG 251135Z AUTO 35007KT 7SM BKN008 OVC016 M01/M01 A2989 RMK AO1
KOLG 251115Z AUTO 35004KT 7SM BKN008 OVC014 M01/M01 A2989 RMK AO1
KOLG 251055Z AUTO 35004KT 5SM BKN008 OVC014 M01/M01 A2989 RMK AO1
KOLG 251035Z AUTO 35005KT 4SM OVC011 M01/M01 A2989 RMK AO1
KOLG 251015Z AUTO 36005KT 4SM OVC008 M01/M01 A2989 RMK AO1
KOLG 250955Z AUTO 34005KT 4SM OVC008 M01/M01 A2989 RMK AO1
KOLG 250935Z AUTO 34006KT 5SM OVC006 M01/M01 A2989 RMK AO1
KOLG 250915Z AUTO 36005KT 7SM OVC006 M01/M01 A2989 RMK AO1
KOLG 250855Z AUTO 36004KT 10SM OVC006 M01/M01 A2989 RMK AO1
KOLG 250835Z AUTO 35004KT 10SM OVC006 M01/M01 A2989 RMK AO1
KOLG 250815Z AUTO 35005KT 5SM OVC006 M01/M01 A2990 RMK AO1
KOLG 250755Z AUTO 35006KT 5SM OVC004 M01/M01 A2989 RMK AO1
KOLG 250735Z AUTO 35004KT 7SM OVC002 00/M01 A2989 RMK AO1
KOLG 250715Z AUTO 35006KT 7SM OVC002 00/M01 A2990 RMK AO1
KOLG 250655Z AUTO 36005KT 5SM OVC002 00/M01 A2991 RMK AO1
KOLG 250635Z AUTO 35004KT 5SM OVC002 M01/M01 A2991 RMK AO1
KOLG 250615Z AUTO 35004KT 3SM OVC002 M01/M01 A2992 RMK AO1
KOLG 250555Z AUTO 35005KT 1 1/4SM OVC002 M01/M01 A2992 RMK AO1
KOLG 250535Z AUTO 34005KT 3/4SM OVC002 M01/M01 A2993 RMK AO1
KOLG 250515Z AUTO 36006KT 3/4SM OVC002 M01/M01 A2992 RMK AO1
KOLG 250455Z AUTO 36007KT 3/4SM OVC002 M01/M01 A2993 RMK AO1
KOLG 250435Z AUTO 35006KT 5SM OVC002 00/M01 A2993 RMK AO1
KOLG 250415Z AUTO 01006KT 340V040 10SM OVC004 00/00 A2993 RMK AO1
KOLG 250355Z AUTO 02006KT 10SM OVC004 00/00 A2993 RMK AO1
KOLG 250335Z AUTO 36005KT 10SM OVC004 00/00 A2994 RMK AO1
KOLG 250315Z AUTO 01005KT 10SM OVC006 00/00 A2994 RMK AO1
KOLG 250255Z AUTO 01006KT 10SM OVC006 00/00 A2995 RMK AO1
KOLG 250235Z AUTO 01006KT 10SM OVC006 00/00 A2995 RMK AO1
KOLG 250215Z AUTO 02006KT 10SM OVC006 00/00 A2995 RMK AO1
KOLG 250155Z AUTO 01005KT 10SM OVC006 00/00 A2996 RMK AO1
KOLG 250135Z AUTO 01004KT 10SM OVC006 00/00 A2996 RMK AO1
KOLG 250115Z AUTO 01004KT 7SM OVC006 00/00 A2997 RMK AO1
KOLG 250055Z AUTO 01005KT 10SM OVC006 00/00 A2997 RMK AO1
KOLG 250035Z AUTO 01006KT 10SM OVC006 00/00 A2997 RMK AO1
KOLG 250015Z AUTO 01006KT 10SM OVC006 00/00 A2997 RMK AO1
KOLG 242355Z AUTO 02006KT 10SM OVC008 00/00 A2997 RMK AO1
KOLG 242335Z AUTO 36005KT 10SM OVC008 00/00 A2997 RMK AO1
KOLG 242315Z AUTO 01005KT 10SM OVC010 00/00 A2997 RMK AO1
KOLG 242255Z AUTO 36004KT 5SM SCT006 BKN012 OVC021 00/00 A2997 RMK AO1
KOLG 242235Z AUTO 36005KT 5SM BKN008 BKN015 OVC021 00/00 A2997 RMK AO1
KOLG 242215Z AUTO 01004KT 7SM BKN008 OVC016 00/00 A2997 RMK AO1
KOLG 242155Z AUTO 01004KT 7SM OVC010 00/00 A2997 RMK AO1
KOLG 242135Z AUTO 36005KT 7SM OVC008 00/00 A2997 RMK AO1
KOLG 242115Z AUTO 36005KT 5SM BKN010 OVC015 00/00 A2997 RMK AO1
KOLG 242055Z AUTO 02007KT 10SM OVC013 00/00 A2997 RMK AO1